Time;durP1;ratioP1;P1;durP2;ratioP2;P2;SDS_P1;SDS_P2;PMS_P1;PMS_P2;Temp;Humidity;BMP_temperature;BMP_pressure;BME280_temperature;BME280_humidity;BME280_pressure;Samples;Min_cycle;Max_cycle;Signal;HPM_P1;HPM_P2
2023/06/03 00:01:13;;;;;;;3.35;2.22;;;12.10;87.80;;;;;;4965841;28;20233;-75
2023/06/03 00:03:44;;;;;;;4.38;2.13;;;12.10;87.60;;;;;;4969779;28;20324;-74
2023/06/03 00:06:12;;;;;;;4.97;2.20;;;12.10;88.20;;;;;;4970358;28;20220;-74
2023/06/03 00:08:39;;;;;;;4.35;2.15;;;12.10;88.40;;;;;;4975686;28;20221;-78
2023/06/03 00:11:06;;;;;;;6.10;3.90;;;12.00;89.10;;;;;;4973232;28;20209;-76
2023/06/03 00:13:33;;;;;;;5.50;2.50;;;12.00;89.30;;;;;;4967923;28;20238;-79
2023/06/03 00:16:01;;;;;;;4.30;2.10;;;12.00;89.30;;;;;;4969381;28;20216;-76
2023/06/03 00:18:28;;;;;;;9.60;2.10;;;12.00;89.70;;;;;;4973338;28;20661;-78
2023/06/03 00:20:55;;;;;;;3.95;2.20;;;11.90;89.90;;;;;;4967204;28;20573;-78
2023/06/03 00:23:22;;;;;;;6.60;2.35;;;11.80;90.00;;;;;;4980791;28;20275;-74
2023/06/03 00:25:50;;;;;;;4.38;1.95;;;11.80;90.10;;;;;;4966163;28;20244;-75
2023/06/03 00:28:17;;;;;;;3.70;2.50;;;11.80;90.30;;;;;;4970156;28;20305;-76
2023/06/03 00:30:43;;;;;;;2.60;1.98;;;11.80;90.60;;;;;;4967199;28;20207;-77
2023/06/03 00:33:12;;;;;;;4.88;1.90;;;11.80;90.60;;;;;;4981586;28;20226;-75
2023/06/03 00:35:40;;;;;;;4.43;2.22;;;11.70;90.70;;;;;;4976737;28;20435;-76
2023/06/03 00:38:06;;;;;;;3.60;2.03;;;11.70;90.80;;;;;;4974144;28;20268;-77
2023/06/03 00:40:33;;;;;;;6.30;2.85;;;11.70;90.90;;;;;;4975444;28;20296;-75
2023/06/03 00:43:00;;;;;;;4.28;2.25;;;11.60;90.80;;;;;;4983448;28;20235;-73
2023/06/03 00:45:27;;;;;;;4.43;2.08;;;11.60;91.10;;;;;;4965344;28;20237;-75
2023/06/03 00:47:54;;;;;;;3.08;1.98;;;11.60;91.20;;;;;;4971075;28;20208;-75
2023/06/03 00:50:23;;;;;;;2.70;1.67;;;11.60;91.40;;;;;;4962401;28;20578;-77
2023/06/03 00:52:50;;;;;;;3.58;2.15;;;11.60;91.40;;;;;;4975236;28;20227;-76
2023/06/03 00:55:18;;;;;;;2.67;1.60;;;11.50;91.60;;;;;;4967597;28;20743;-78
2023/06/03 00:57:46;;;;;;;3.92;1.80;;;11.40;91.70;;;;;;4977079;28;20209;-77
2023/06/03 01:00:13;;;;;;;2.30;1.52;;;11.40;91.90;;;;;;4965677;28;20577;-74
2023/06/03 01:02:43;;;;;;;2.42;1.90;;;11.40;92.00;;;;;;4972610;28;20233;-78
2023/06/03 01:05:11;;;;;;;3.40;2.17;;;11.40;92.10;;;;;;4970306;28;20204;-79
2023/06/03 01:07:48;;;;;;;2.72;2.05;;;11.30;92.30;;;;;;4972462;28;20299;-76
2023/06/03 01:10:22;;;;;;;3.25;1.60;;;11.20;92.50;;;;;;4971477;28;20609;-78
2023/06/03 01:12:58;;;;;;;5.93;2.05;;;11.20;92.80;;;;;;4990704;28;20306;-77
2023/06/03 01:15:28;;;;;;;4.25;2.35;;;11.10;93.20;;;;;;4982135;28;20208;-74
2023/06/03 01:18:00;;;;;;;2.50;1.73;;;11.10;93.20;;;;;;4989259;28;20564;-76
2023/06/03 01:20:28;;;;;;;5.43;2.80;;;11.10;93.30;;;;;;4966423;28;20267;-75
2023/06/03 01:23:15;;;;;;;5.28;3.25;;;11.10;93.30;;;;;;4976656;28;20232;-77
2023/06/03 01:25:43;;;;;;;2.10;1.40;;;11.10;93.50;;;;;;4977480;28;20330;-77
2023/06/03 01:28:09;;;;;;;5.63;2.05;;;11.00;93.70;;;;;;4974759;28;20200;-75
2023/06/03 01:30:37;;;;;;;3.42;1.80;;;11.00;93.90;;;;;;4965243;28;20298;-78
2023/06/03 01:33:05;;;;;;;2.20;1.60;;;11.00;94.10;;;;;;4981141;28;20253;-75
2023/06/03 01:35:33;;;;;;;4.95;2.50;;;10.90;94.20;;;;;;4984256;28;20313;-73
2023/06/03 01:38:01;;;;;;;2.80;2.03;;;10.90;94.60;;;;;;4984304;28;20213;-73
2023/06/03 01:40:29;;;;;;;4.40;2.10;;;10.90;94.60;;;;;;4967878;28;20208;-72
2023/06/03 01:42:56;;;;;;;2.30;1.63;;;10.80;95.00;;;;;;4974866;28;20235;-75
2023/06/03 01:45:23;;;;;;;3.10;1.50;;;10.80;95.00;;;;;;4979471;28;20283;-75
2023/06/03 01:47:51;;;;;;;2.05;1.75;;;10.80;95.20;;;;;;4977881;28;20554;-79
2023/06/03 01:50:18;;;;;;;3.17;1.90;;;10.70;95.70;;;;;;4978671;28;20248;-77
2023/06/03 01:52:45;;;;;;;3.67;2.30;;;10.70;95.50;;;;;;4980279;28;20313;-79
2023/06/03 01:55:12;;;;;;;4.20;1.63;;;10.60;95.80;;;;;;4970280;28;20215;-74
2023/06/03 01:57:40;;;;;;;2.63;2.28;;;10.60;96.00;;;;;;4978108;28;20234;-75
2023/06/03 02:00:11;;;;;;;4.63;1.63;;;10.60;96.20;;;;;;4967960;28;20272;-77
2023/06/03 02:02:38;;;;;;;3.45;2.10;;;10.60;96.40;;;;;;4977987;28;20273;-76
2023/06/03 02:05:05;;;;;;;3.58;1.95;;;10.50;96.50;;;;;;4977794;28;20293;-77
2023/06/03 02:07:32;;;;;;;3.17;2.15;;;10.50;96.80;;;;;;4982115;28;20298;-74
2023/06/03 02:10:00;;;;;;;3.40;1.50;;;10.50;97.10;;;;;;4991379;28;20246;-74
2023/06/03 02:12:27;;;;;;;4.82;2.00;;;10.50;97.30;;;;;;4992674;28;20233;-75
2023/06/03 02:14:56;;;;;;;3.10;1.65;;;10.50;97.30;;;;;;4989498;28;20604;-76
2023/06/03 02:17:24;;;;;;;2.25;1.50;;;10.50;97.10;;;;;;4966915;28;20220;-74
2023/06/03 02:19:51;;;;;;;3.40;2.10;;;10.50;97.50;;;;;;4970762;28;20241;-74
2023/06/03 02:22:18;;;;;;;3.03;2.28;;;10.40;97.90;;;;;;4966730;28;20647;-75
2023/06/03 02:24:46;;;;;;;2.40;1.83;;;10.30;97.70;;;;;;4974409;28;20247;-75
2023/06/03 02:27:14;;;;;;;2.35;1.63;;;10.30;98.00;;;;;;4967237;28;20651;-75
2023/06/03 02:29:42;;;;;;;2.40;1.80;;;10.30;98.40;;;;;;4971205;28;20234;-74
2023/06/03 02:32:11;;;;;;;4.47;1.60;;;10.20;98.50;;;;;;4976944;28;20277;-77
2023/06/03 02:34:38;;;;;;;3.45;1.80;;;10.20;98.80;;;;;;4971992;28;20272;-76
2023/06/03 02:37:06;;;;;;;3.05;2.55;;;10.20;99.10;;;;;;4978616;28;20195;-74
2023/06/03 02:39:34;;;;;;;2.85;1.50;;;10.20;99.40;;;;;;4976720;28;20238;-77
2023/06/03 02:42:00;;;;;;;18.30;2.15;;;10.20;99.30;;;;;;4979418;28;20226;-73
2023/06/03 02:44:27;;;;;;;2.97;1.60;;;10.20;99.70;;;;;;4976738;28;20239;-75
2023/06/03 02:46:54;;;;;;;3.00;1.60;;;10.20;99.70;;;;;;4978198;28;20230;-75
2023/06/03 02:49:23;;;;;;;4.30;1.90;;;10.20;99.80;;;;;;4976537;28;20215;-77
2023/06/03 02:51:50;;;;;;;4.95;2.40;;;10.20;99.90;;;;;;4970811;28;20209;-77
2023/06/03 02:54:17;;;;;;;4.40;2.58;;;10.10;99.90;;;;;;4981298;28;20294;-75
2023/06/03 02:56:43;;;;;;;4.32;1.83;;;10.10;99.90;;;;;;4983900;28;20281;-77
2023/06/03 02:59:10;;;;;;;2.53;1.80;;;10.20;99.90;;;;;;4981717;28;20198;-74
2023/06/03 03:01:38;;;;;;;5.70;1.88;;;10.10;99.90;;;;;;4963627;28;20293;-77
2023/06/03 03:04:05;;;;;;;6.85;1.80;;;10.00;99.90;;;;;;4973641;28;20215;-75
2023/06/03 03:06:37;;;;;;;3.63;2.25;;;10.00;99.90;;;;;;4973833;28;20210;-78
2023/06/03 03:09:04;;;;;;;4.55;2.00;;;10.00;99.90;;;;;;4974227;28;20211;-75
2023/06/03 03:11:31;;;;;;;4.53;2.17;;;10.00;99.90;;;;;;4967570;28;20211;-75
2023/06/03 03:13:58;;;;;;;3.35;1.70;;;9.90;99.90;;;;;;4972806;28;20218;-78
2023/06/03 03:16:26;;;;;;;2.65;1.50;;;9.90;99.90;;;;;;4980424;28;20236;-76
2023/06/03 03:18:53;;;;;;;4.45;2.25;;;9.90;99.90;;;;;;4978509;28;20198;-73
2023/06/03 03:21:22;;;;;;;2.40;2.20;;;9.90;99.90;;;;;;4973773;28;20234;-78
2023/06/03 03:23:51;;;;;;;4.95;2.17;;;9.80;99.90;;;;;;4976577;28;20232;-74
2023/06/03 03:26:22;;;;;;;4.93;2.10;;;9.80;99.90;;;;;;4972399;28;20225;-73
2023/06/03 03:28:50;;;;;;;3.50;2.05;;;9.80;99.90;;;;;;4984938;28;20202;-73
2023/06/03 03:31:18;;;;;;;6.47;2.15;;;9.90;99.90;;;;;;4970776;28;20231;-76
2023/06/03 03:33:45;;;;;;;6.97;1.98;;;9.90;99.90;;;;;;4973861;28;20284;-76
2023/06/03 03:36:13;;;;;;;3.75;2.20;;;9.90;99.90;;;;;;4977833;28;20230;-76
2023/06/03 03:38:40;;;;;;;4.47;2.05;;;9.90;99.90;;;;;;4972854;28;20214;-74
2023/06/03 03:41:09;;;;;;;4.53;2.75;;;10.00;99.90;;;;;;4976518;28;20750;-76
2023/06/03 03:43:35;;;;;;;3.10;2.05;;;10.00;99.90;;;;;;4974839;28;20227;-78
2023/06/03 03:46:03;;;;;;;6.45;2.58;;;10.00;99.90;;;;;;4968168;28;20697;-74
2023/06/03 03:48:31;;;;;;;3.78;2.50;;;10.10;99.90;;;;;;4971837;28;20564;-76
2023/06/03 03:50:58;;;;;;;2.78;1.90;;;10.10;99.90;;;;;;4972228;28;20617;-79
2023/06/03 03:53:29;;;;;;;3.20;2.20;;;10.10;99.90;;;;;;4962605;28;20226;-73
2023/06/03 03:55:57;;;;;;;3.80;2.38;;;10.20;99.90;;;;;;4965136;28;20223;-74
2023/06/03 03:58:29;;;;;;;3.10;2.10;;;10.20;99.90;;;;;;4971346;28;20203;-77
2023/06/03 04:00:59;;;;;;;4.95;2.42;;;10.30;99.90;;;;;;4972969;28;20207;-76
2023/06/03 04:03:27;;;;;;;3.17;2.38;;;10.40;99.90;;;;;;4964433;28;20264;-74
2023/06/03 04:05:55;;;;;;;3.40;2.00;;;10.50;99.90;;;;;;4979051;28;20794;-77
2023/06/03 04:08:39;;;;;;;6.97;2.20;;;10.60;99.90;;;;;;4974028;28;20270;-79
2023/06/03 04:11:07;;;;;;;3.38;2.00;;;11.10;99.90;;;;;;4967084;28;20209;-77
2023/06/03 04:13:40;;;;;;;3.25;1.95;;;11.90;99.90;;;;;;4974610;28;20232;-76
2023/06/03 04:16:11;;;;;;;3.63;2.25;;;12.70;97.70;;;;;;4975381;28;20696;-74
2023/06/03 04:19:02;;;;;;;3.25;2.10;;;13.60;96.00;;;;;;4980154;28;20214;-76
2023/06/03 04:21:30;;;;;;;4.43;2.25;;;14.70;93.70;;;;;;4968840;28;20213;-78
2023/06/03 04:23:57;;;;;;;4.18;2.10;;;15.70;91.60;;;;;;4963895;28;20356;-73
2023/06/03 04:26:24;;;;;;;2.93;1.93;;;16.50;90.20;;;;;;4976723;28;20221;-75
2023/06/03 04:28:52;;;;;;;5.07;1.87;;;17.20;87.70;;;;;;4960771;28;20459;-77
2023/06/03 04:31:19;;;;;;;2.87;2.50;;;17.90;85.10;;;;;;4978300;28;20570;-75
2023/06/03 04:33:46;;;;;;;3.87;2.43;;;18.50;82.90;;;;;;4971093;28;20549;-75
2023/06/03 04:36:13;;;;;;;4.00;2.30;;;18.90;80.60;;;;;;4974150;28;20592;-79
2023/06/03 04:38:41;;;;;;;3.40;1.70;;;19.10;80.00;;;;;;4969894;28;21005;-79
2023/06/03 04:41:10;;;;;;;2.23;1.90;;;19.50;78.40;;;;;;4966306;28;20453;-78
2023/06/03 04:43:40;;;;;;;2.57;1.73;;;20.10;77.30;;;;;;4966884;28;20473;-78
2023/06/03 04:46:10;;;;;;;3.50;1.93;;;20.60;75.20;;;;;;4976933;28;20446;-77
2023/06/03 04:48:37;;;;;;;2.60;1.90;;;21.30;74.10;;;;;;4971262;28;20457;-77
2023/06/03 04:51:07;;;;;;;2.50;1.90;;;21.70;72.30;;;;;;4970028;28;20564;-80
2023/06/03 04:53:34;;;;;;;1.90;1.70;;;21.90;71.00;;;;;;4968793;28;20466;-78
2023/06/03 04:56:03;;;;;;;7.13;2.10;;;22.10;70.30;;;;;;4974391;28;20570;-76
2023/06/03 04:58:30;;;;;;;2.57;1.87;;;22.40;69.70;;;;;;4968421;28;20468;-78
2023/06/03 05:00:57;;;;;;;4.83;2.00;;;22.40;68.60;;;;;;4974146;28;20478;-80
2023/06/03 05:03:26;;;;;;;2.77;1.57;;;22.60;68.40;;;;;;4981258;28;20497;-80
2023/06/03 05:05:53;;;;;;;3.77;1.73;;;22.90;67.60;;;;;;4975632;28;20533;-79
2023/06/03 05:08:21;;;;;;;8.33;2.30;;;23.30;66.50;;;;;;4972236;28;20477;-78
2023/06/03 05:10:47;;;;;;;2.70;1.93;;;23.90;65.20;;;;;;4969063;28;20529;-75
2023/06/03 05:13:14;;;;;;;3.20;1.53;;;24.20;64.60;;;;;;4973319;28;20778;-79
2023/06/03 05:15:41;;;;;;;2.30;1.57;;;24.80;62.90;;;;;;4978037;28;20480;-78
2023/06/03 05:18:08;;;;;;;3.50;1.90;;;24.90;61.70;;;;;;4975148;28;20445;-76
2023/06/03 05:20:36;;;;;;;2.67;1.90;;;25.30;60.70;;;;;;4971869;28;20434;-79
2023/06/03 05:23:03;;;;;;;2.97;2.03;;;25.50;60.00;;;;;;4976230;28;20486;-80
2023/06/03 05:25:30;;;;;;;2.80;1.70;;;25.50;59.70;;;;;;4980774;28;20453;-81
2023/06/03 05:27:57;;;;;;;3.00;2.10;;;25.70;59.20;;;;;;4980535;28;20453;-81
2023/06/03 05:30:24;;;;;;;7.30;2.27;;;26.00;58.10;;;;;;4976319;28;20536;-80
2023/06/03 05:32:51;;;;;;;3.37;1.97;;;26.30;57.50;;;;;;4976843;28;20494;-78
2023/06/03 05:35:19;;;;;;;2.30;1.87;;;26.50;56.50;;;;;;4987205;28;20577;-81
2023/06/03 05:37:47;;;;;;;3.17;2.30;;;26.50;56.20;;;;;;4980519;28;20540;-78
2023/06/03 05:40:14;;;;;;;2.60;2.40;;;26.90;55.60;;;;;;4980053;28;20445;-78
2023/06/03 05:42:41;;;;;;;2.73;2.37;;;26.80;55.80;;;;;;4982161;28;20470;-78
2023/06/03 05:45:09;;;;;;;4.67;2.50;;;26.80;55.80;;;;;;4977725;28;20454;-78
2023/06/03 05:47:36;;;;;;;3.00;1.97;;;26.60;54.70;;;;;;4975542;28;20449;-81
2023/06/03 05:50:04;;;;;;;2.53;2.33;;;26.60;55.40;;;;;;4970660;28;20513;-77
2023/06/03 05:52:31;;;;;;;3.03;2.00;;;27.00;54.80;;;;;;4987805;28;20479;-77
2023/06/03 05:54:59;;;;;;;2.10;1.80;;;27.50;53.30;;;;;;4978260;28;20978;-76
2023/06/03 05:57:26;;;;;;;7.73;2.37;;;27.80;52.70;;;;;;4983850;28;20512;-79
2023/06/03 05:59:53;;;;;;;2.47;1.90;;;28.00;52.90;;;;;;4978179;28;21047;-78
2023/06/03 06:02:20;;;;;;;2.97;1.90;;;28.30;51.80;;;;;;4972145;28;20552;-79
2023/06/03 06:04:48;;;;;;;1.80;1.53;;;28.40;51.50;;;;;;4982410;28;20457;-81
2023/06/03 06:07:15;;;;;;;3.53;1.93;;;28.80;50.40;;;;;;4981927;28;20527;-79
2023/06/03 06:09:42;;;;;;;2.03;1.67;;;29.20;49.20;;;;;;4975908;28;20533;-78
2023/06/03 06:12:11;;;;;;;2.50;2.10;;;29.50;48.40;;;;;;4974161;28;20469;-79
2023/06/03 06:14:38;;;;;;;4.17;2.50;;;29.40;48.10;;;;;;4970200;28;20853;-78
2023/06/03 06:17:06;;;;;;;7.03;1.77;;;29.50;47.90;;;;;;4975040;28;20465;-80
2023/06/03 06:19:35;;;;;;;2.70;2.13;;;29.10;48.10;;;;;;4971121;28;20454;-80
2023/06/03 06:22:02;;;;;;;3.43;2.03;;;28.70;48.10;;;;;;4979005;28;20469;-81
2023/06/03 06:24:30;;;;;;;2.67;1.80;;;28.90;49.10;;;;;;4975854;28;20477;-79
2023/06/03 06:26:58;;;;;;;3.10;1.90;;;29.20;48.20;;;;;;4971887;28;20489;-80
2023/06/03 06:29:27;;;;;;;2.30;2.10;;;29.70;46.00;;;;;;4970668;28;20445;-76
2023/06/03 06:31:55;;;;;;;5.03;2.30;;;30.20;45.80;;;;;;4967997;28;20474;-79
2023/06/03 06:34:22;;;;;;;2.40;1.70;;;30.30;44.80;;;;;;4981658;28;20446;-78
2023/06/03 06:36:52;;;;;;;2.57;1.97;;;30.50;44.10;;;;;;4979226;28;20550;-76
2023/06/03 06:39:45;;;;;;;3.70;2.00;;;30.50;43.80;;;;;;4984374;28;20537;-77
2023/06/03 06:42:14;;;;;;;2.43;1.93;;;30.30;44.10;;;;;;4984033;28;20469;-79
2023/06/03 06:44:47;;;;;;;2.30;1.93;;;30.50;43.70;;;;;;4980815;28;20812;-78
2023/06/03 06:47:17;;;;;;;4.87;2.13;;;30.70;43.20;;;;;;4977765;28;20921;-78
2023/06/03 06:49:44;;;;;;;3.40;1.90;;;31.00;42.60;;;;;;4962339;28;20442;-78
2023/06/03 06:52:12;;;;;;;3.10;1.80;;;31.00;42.60;;;;;;4966788;28;20465;-80
2023/06/03 06:54:53;;;;;;;3.93;1.87;;;31.00;42.00;;;;;;4991537;28;20462;-80
2023/06/03 06:57:24;;;;;;;2.10;1.90;;;30.40;41.70;;;;;;4991962;28;20489;-79
2023/06/03 06:59:54;;;;;;;3.33;1.83;;;30.80;42.10;;;;;;4978873;28;20489;-81
2023/06/03 07:02:21;;;;;;;2.40;1.80;;;31.00;42.10;;;;;;4975763;28;20469;-81
2023/06/03 07:04:50;;;;;;;2.57;1.90;;;31.40;42.10;;;;;;4971874;28;20891;-78
2023/06/03 07:07:17;;;;;;;2.23;1.93;;;31.20;40.00;;;;;;4970141;28;20451;-80
2023/06/03 07:09:44;;;;;;;1.57;1.47;;;30.90;40.00;;;;;;4970602;28;20992;-80
2023/06/03 07:12:11;;;;;;;3.30;2.20;;;30.80;39.80;;;;;;4974545;28;20512;-81
2023/06/03 07:14:38;;;;;;;3.10;1.80;;;30.50;42.20;;;;;;4977355;28;20470;-79
2023/06/03 07:17:08;;;;;;;8.03;2.23;;;30.20;40.80;;;;;;4974849;28;20562;-81
2023/06/03 07:19:37;;;;;;;2.60;1.80;;;29.90;40.20;;;;;;4968560;28;20530;-81
2023/06/03 07:22:07;;;;;;;2.30;1.80;;;30.50;41.10;;;;;;4974618;28;20462;-80
2023/06/03 07:24:37;;;;;;;2.80;2.23;;;31.10;40.70;;;;;;4974439;28;20450;-80
2023/06/03 07:27:07;;;;;;;3.50;1.90;;;31.00;40.40;;;;;;4984218;28;20799;-82
2023/06/03 07:29:38;;;;;;;1.93;1.83;;;30.60;40.10;;;;;;4976796;28;20459;-80
2023/06/03 07:32:09;;;;;;;3.70;1.80;;;30.30;40.40;;;;;;4987675;28;20465;-80
2023/06/03 07:34:36;;;;;;;2.50;1.87;;;30.20;41.30;;;;;;4978167;28;20441;-80
2023/06/03 07:37:06;;;;;;;2.33;1.80;;;30.10;40.50;;;;;;4982182;28;20478;-80
2023/06/03 07:39:35;;;;;;;2.20;1.80;;;30.00;40.80;;;;;;4986908;28;20449;-80
2023/06/03 07:42:03;;;;;;;4.77;2.57;;;30.00;40.90;;;;;;4985673;28;20529;-79
2023/06/03 07:44:45;;;;;;;3.17;2.40;;;29.90;41.50;;;;;;4975466;28;20929;-78
2023/06/03 07:47:15;;;;;;;7.50;2.40;;;29.70;41.10;;;;;;4975514;28;20446;-79
2023/06/03 07:49:45;;;;;;;2.57;2.10;;;30.10;40.60;;;;;;4980764;28;20464;-80
2023/06/03 07:52:17;;;;;;;2.77;2.10;;;30.20;40.20;;;;;;4988835;28;20470;-80
2023/06/03 07:54:45;;;;;;;2.43;1.60;;;30.20;40.40;;;;;;4969249;28;20508;-80
2023/06/03 07:57:15;;;;;;;2.20;1.80;;;29.90;40.50;;;;;;4970291;28;20560;-79
2023/06/03 07:59:51;;;;;;;2.63;1.57;;;29.80;41.30;;;;;;4971045;28;20480;-80
2023/06/03 08:02:19;;;;;;;3.50;1.67;;;30.40;40.90;;;;;;4973793;28;20479;-80
2023/06/03 08:04:46;;;;;;;2.77;1.40;;;30.40;39.50;;;;;;4977085;28;20537;-81
2023/06/03 08:07:15;;;;;;;3.37;1.83;;;30.50;40.50;;;;;;4975802;28;20465;-80
2023/06/03 08:09:42;;;;;;;6.90;1.70;;;31.10;39.10;;;;;;4988355;28;20939;-79
2023/06/03 08:12:10;;;;;;;2.63;1.73;;;31.70;36.80;;;;;;4979588;28;20998;-79
2023/06/03 08:14:39;;;;;;;2.43;1.67;;;31.70;36.70;;;;;;4983613;28;20450;-80
2023/06/03 08:17:09;;;;;;;7.03;1.60;;;31.90;36.50;;;;;;4984614;28;20485;-80
2023/06/03 08:19:39;;;;;;;3.13;1.83;;;32.00;37.10;;;;;;4976780;28;20454;-79
2023/06/03 08:22:18;;;;;;;1.80;1.70;;;32.30;37.70;;;;;;4981218;28;20468;-81
2023/06/03 08:24:46;;;;;;;1.87;1.67;;;32.40;36.70;;;;;;4974332;28;20453;-81
2023/06/03 08:27:13;;;;;;;2.27;2.03;;;32.00;36.50;;;;;;4965795;28;20529;-81
2023/06/03 08:29:40;;;;;;;2.30;1.47;;;32.30;35.90;;;;;;4964366;28;20545;-77
2023/06/03 08:32:07;;;;;;;3.43;1.63;;;31.80;35.10;;;;;;4973753;28;20472;-80
2023/06/03 08:34:34;;;;;;;1.57;1.47;;;31.80;35.50;;;;;;4973859;28;20463;-79
2023/06/03 08:37:03;;;;;;;3.03;1.70;;;31.90;35.90;;;;;;4970498;28;20993;-79
2023/06/03 08:39:30;;;;;;;1.70;1.53;;;31.90;36.30;;;;;;4969990;28;20946;-76
2023/06/03 08:42:02;;;;;;;3.03;1.60;;;32.10;36.40;;;;;;4964926;28;20505;-76
2023/06/03 08:44:40;;;;;;;3.93;1.93;;;31.90;36.70;;;;;;4977897;28;20867;-77
2023/06/03 08:47:13;;;;;;;3.10;1.93;;;32.30;36.30;;;;;;4971152;28;20451;-78
2023/06/03 08:49:48;;;;;;;5.10;1.83;;;32.10;36.40;;;;;;4971204;28;20445;-77
2023/06/03 08:52:18;;;;;;;2.20;1.73;;;32.00;36.30;;;;;;4965112;28;20552;-78
2023/06/03 08:54:46;;;;;;;2.03;1.80;;;31.90;36.90;;;;;;4968414;28;20553;-79
2023/06/03 08:57:19;;;;;;;4.27;1.90;;;32.40;36.10;;;;;;4973656;28;20537;-77
2023/06/03 08:59:48;;;;;;;2.40;1.60;;;32.50;34.80;;;;;;4971992;28;20454;-80
2023/06/03 09:02:15;;;;;;;2.23;2.00;;;32.00;35.00;;;;;;4975053;28;20489;-77
2023/06/03 09:04:43;;;;;;;2.50;1.57;;;31.50;35.90;;;;;;4977029;28;20515;-77
2023/06/03 09:07:11;;;;;;;1.80;1.70;;;30.80;36.70;;;;;;4974857;28;20517;-79
2023/06/03 09:09:41;;;;;;;4.67;2.03;;;30.10;37.60;;;;;;4970287;28;20865;-84
2023/06/03 09:12:09;;;;;;;1.70;1.60;;;30.20;37.00;;;;;;4971631;28;20461;-78
2023/06/03 09:14:39;;;;;;;3.20;1.80;;;30.40;37.50;;;;;;4963441;28;20467;-79
2023/06/03 09:17:08;;;;;;;3.80;2.27;;;30.50;37.90;;;;;;4962321;28;20478;-80
2023/06/03 09:19:36;;;;;;;2.07;1.90;;;30.60;39.10;;;;;;4970769;28;20816;-83
2023/06/03 09:22:04;;;;;;;4.60;2.20;;;30.80;37.20;;;;;;4977618;28;20484;-75
2023/06/03 09:24:30;;;;;;;2.53;1.63;;;31.00;37.50;;;;;;4971952;28;20454;-78
2023/06/03 09:26:59;;;;;;;4.00;1.70;;;30.80;36.90;;;;;;4981511;28;20556;-78
2023/06/03 09:29:26;;;;;;;4.23;1.80;;;29.80;36.80;;;;;;4968644;28;20476;-77
2023/06/03 09:31:53;;;;;;;2.00;1.50;;;29.00;38.10;;;;;;4962495;28;21015;-79
2023/06/03 09:34:22;;;;;;;2.80;2.00;;;28.30;38.90;;;;;;4969571;28;20520;-77
2023/06/03 09:36:50;;;;;;;5.17;2.57;;;28.00;39.40;;;;;;4969450;28;20534;-77
2023/06/03 09:39:31;;;;;;;8.30;2.37;;;28.10;40.40;;;;;;4975128;28;20508;-77
2023/06/03 09:42:00;;;;;;;3.37;1.73;;;28.90;40.20;;;;;;4971551;28;20548;-77
2023/06/03 09:44:39;;;;;;;6.40;1.93;;;29.00;39.30;;;;;;4983221;28;20822;-76
2023/06/03 09:47:07;;;;;;;2.17;1.97;;;29.30;39.20;;;;;;4976605;28;20453;-78
2023/06/03 09:49:34;;;;;;;2.40;2.00;;;29.30;39.10;;;;;;4972117;28;20500;-73
2023/06/03 09:52:03;;;;;;;3.20;2.20;;;29.40;39.20;;;;;;4965812;28;20505;-74
2023/06/03 09:54:30;;;;;;;2.00;1.80;;;28.90;39.60;;;;;;4968711;28;20477;-74
2023/06/03 09:57:12;;;;;;;3.27;1.97;;;29.00;40.00;;;;;;4965799;28;20533;-75
2023/06/03 09:59:41;;;;;;;3.13;2.17;;;29.50;39.20;;;;;;4971154;28;20445;-79
2023/06/03 10:02:13;;;;;;;2.30;2.00;;;29.30;38.90;;;;;;4970600;28;20474;-76
2023/06/03 10:04:42;;;;;;;1.80;1.57;;;29.30;37.70;;;;;;4975347;28;20494;-79
2023/06/03 10:07:10;;;;;;;2.00;1.43;;;28.60;38.30;;;;;;4964003;28;20940;-80
2023/06/03 10:09:37;;;;;;;2.80;1.87;;;28.30;39.40;;;;;;4970125;28;20450;-74
2023/06/03 10:12:07;;;;;;;2.10;1.90;;;28.50;39.20;;;;;;4963023;28;20592;-75
2023/06/03 10:14:45;;;;;;;1.90;1.63;;;28.80;39.50;;;;;;4965705;28;20545;-77
2023/06/03 10:17:14;;;;;;;2.23;1.70;;;29.30;40.30;;;;;;4967950;28;20666;-77
2023/06/03 10:19:41;;;;;;;5.83;2.90;;;29.90;38.90;;;;;;4971229;28;20464;-74
2023/06/03 10:22:10;;;;;;;3.13;1.93;;;29.30;38.20;;;;;;4961337;28;20972;-75
2023/06/03 10:24:40;;;;;;;1.90;1.80;;;28.80;39.20;;;;;;4969244;28;20536;-77
2023/06/03 10:27:08;;;;;;;4.77;2.00;;;28.80;38.70;;;;;;4970525;28;20457;-74
2023/06/03 10:29:37;;;;;;;3.13;2.10;;;28.80;38.20;;;;;;4971683;28;20454;-75
2023/06/03 10:32:07;;;;;;;1.90;1.80;;;28.90;37.90;;;;;;4964324;28;20550;-78
2023/06/03 10:34:37;;;;;;;2.23;1.73;;;28.20;38.60;;;;;;4967585;28;20434;-72
2023/06/03 10:37:06;;;;;;;3.23;1.90;;;27.10;38.90;;;;;;4963420;28;20889;-71
2023/06/03 10:39:33;;;;;;;2.20;2.00;;;26.00;40.30;;;;;;4966093;28;20545;-70
2023/06/03 10:42:01;;;;;;;2.10;1.90;;;25.50;42.10;;;;;;4966978;28;21030;-72
2023/06/03 10:44:28;;;;;;;1.83;1.50;;;25.00;43.00;;;;;;4962461;28;20466;-76
2023/06/03 10:47:00;;;;;;;3.47;1.93;;;24.80;43.10;;;;;;4966669;28;20454;-74
2023/06/03 10:49:34;;;;;;;2.37;1.70;;;24.20;43.30;;;;;;4970957;28;20530;-78
2023/06/03 10:52:23;;;;;;;2.73;1.90;;;23.50;44.10;;;;;;4972110;28;20501;-77
2023/06/03 10:54:59;;;;;;;1.90;1.80;;;23.10;44.70;;;;;;4966489;28;20944;-77
2023/06/03 10:57:35;;;;;;;2.43;2.07;;;22.60;45.60;;;;;;4968646;28;20478;-74
2023/06/03 11:00:03;;;;;;;2.47;2.27;;;22.30;47.00;;;;;;4968255;28;20449;-73
2023/06/03 11:03:05;;;;;;;3.17;2.57;;;22.20;47.90;;;;;;4969445;28;20478;-74
2023/06/03 11:05:32;;;;;;;2.67;2.23;;;22.20;47.50;;;;;;4965610;28;20559;-74
2023/06/03 11:07:59;;;;;;;3.67;2.07;;;22.30;47.70;;;;;;4968903;28;20509;-72
2023/06/03 11:10:44;;;;;;;4.50;2.50;;;22.30;48.30;;;;;;4973202;28;20446;-72
2023/06/03 11:13:33;;;;;;;5.60;2.00;;;22.40;48.10;;;;;;4969029;28;20469;-76
2023/06/03 11:16:01;;;;;;;3.67;2.13;;;22.70;48.40;;;;;;4968872;28;20453;-75
2023/06/03 11:18:31;;;;;;;2.13;1.73;;;22.70;48.00;;;;;;4967433;28;21016;-75
2023/06/03 11:20:58;;;;;;;1.80;1.70;;;22.60;47.60;;;;;;4967238;28;20533;-76
2023/06/03 11:23:41;;;;;;;4.60;1.93;;;22.70;48.60;;;;;;4966776;28;20566;-76
2023/06/03 11:26:33;;;;;;;4.13;2.47;;;22.70;47.40;;;;;;4964994;28;20544;-76
2023/06/03 11:29:01;;;;;;;9.17;1.70;;;22.40;47.00;;;;;;4973493;28;20457;-75
2023/06/03 11:31:29;;;;;;;2.77;1.93;;;22.30;47.80;;;;;;4969113;28;20529;-78
2023/06/03 11:34:23;;;;;;;3.37;2.60;;;22.40;48.60;;;;;;4967672;28;20497;-75
2023/06/03 11:36:51;;;;;;;3.70;2.20;;;22.60;48.10;;;;;;4982525;28;20812;-74
2023/06/03 11:39:27;;;;;;;4.40;2.67;;;22.90;48.10;;;;;;4972505;28;20828;-75
2023/06/03 11:42:09;;;;;;;2.07;1.80;;;23.10;47.60;;;;;;4962663;28;20494;-76
2023/06/03 11:44:37;;;;;;;3.00;2.17;;;23.30;46.20;;;;;;4965955;28;20533;-75
2023/06/03 11:47:05;;;;;;;1.87;1.77;;;23.20;45.30;;;;;;4974965;28;20464;-75
2023/06/03 11:49:36;;;;;;;2.07;1.97;;;23.30;45.70;;;;;;4964666;28;20451;-76
2023/06/03 11:52:05;;;;;;;2.53;2.03;;;23.40;46.30;;;;;;4971672;28;20469;-75
2023/06/03 11:54:32;;;;;;;5.07;1.63;;;23.20;46.10;;;;;;4966774;28;20455;-75
2023/06/03 11:56:59;;;;;;;2.93;2.10;;;22.90;46.60;;;;;;4971450;28;20537;-75
2023/06/03 11:59:39;;;;;;;3.20;1.67;;;22.70;46.70;;;;;;4970774;28;20500;-76
2023/06/03 12:02:07;;;;;;;3.00;2.30;;;22.40;47.10;;;;;;4973977;28;21043;-74
2023/06/03 12:04:36;;;;;;;2.50;2.07;;;22.30;47.80;;;;;;4970395;28;20903;-75
2023/06/03 12:07:11;;;;;;;2.13;1.93;;;22.50;48.20;;;;;;4965195;28;20457;-76
2023/06/03 12:09:38;;;;;;;3.63;2.10;;;22.50;47.70;;;;;;4972647;28;20857;-75
2023/06/03 12:12:07;;;;;;;4.83;2.00;;;22.40;47.30;;;;;;4974530;28;20545;-74
2023/06/03 12:14:38;;;;;;;7.90;2.03;;;22.60;47.50;;;;;;4968626;28;20446;-76
2023/06/03 12:17:12;;;;;;;2.70;1.90;;;22.80;46.90;;;;;;4959444;28;20445;-76
2023/06/03 12:19:42;;;;;;;2.43;2.10;;;23.00;46.70;;;;;;4965057;28;20571;-77
2023/06/03 12:22:09;;;;;;;2.60;1.97;;;23.10;46.20;;;;;;4967464;28;20825;-75
2023/06/03 12:24:40;;;;;;;4.13;1.90;;;23.00;46.00;;;;;;4967050;28;20449;-75
2023/06/03 12:27:17;;;;;;;2.37;1.90;;;22.90;46.90;;;;;;4968371;28;20851;-75
2023/06/03 12:29:47;;;;;;;2.30;1.80;;;22.90;46.50;;;;;;4967361;28;20453;-75
2023/06/03 12:32:14;;;;;;;3.87;1.93;;;22.90;46.90;;;;;;4968052;28;20465;-75
2023/06/03 12:34:44;;;;;;;3.30;1.87;;;23.00;47.30;;;;;;4968234;28;20518;-75
2023/06/03 12:37:12;;;;;;;4.97;2.00;;;23.00;46.80;;;;;;4965825;28;20453;-76
2023/06/03 12:39:47;;;;;;;3.10;1.93;;;22.90;47.20;;;;;;4968177;28;20481;-76
2023/06/03 12:42:15;;;;;;;4.53;2.20;;;22.80;47.20;;;;;;4965525;28;20508;-76
2023/06/03 12:44:49;;;;;;;4.83;2.00;;;22.80;47.70;;;;;;4967359;28;20477;-76
2023/06/03 12:47:18;;;;;;;2.03;1.93;;;22.80;47.70;;;;;;4962208;28;20459;-74
2023/06/03 12:50:04;;;;;;;2.20;2.00;;;22.90;47.40;;;;;;4964778;28;20505;-74
2023/06/03 12:52:34;;;;;;;2.13;1.93;;;23.00;47.00;;;;;;4969066;28;20465;-74
2023/06/03 12:55:03;;;;;;;1.80;1.70;;;22.70;46.40;;;;;;4969474;28;20816;-74
2023/06/03 12:57:30;;;;;;;6.10;3.50;;;22.40;46.60;;;;;;4968061;28;20793;-75
2023/06/03 12:59:58;;;;;;;3.50;1.70;;;22.10;47.00;;;;;;4964918;28;20546;-77